Time;durP1;ratioP1;P1;durP2;ratioP2;P2;SDS_P1;SDS_P2;PMS_P1;PMS_P2;Temp;Humidity;BMP_temperature;BMP_pressure;BME280_temperature;BME280_humidity;BME280_pressure;Samples;Min_cycle;Max_cycle;Signal;HPM_P1;HPM_P2
2021/10/26 00:00:12;;;;;;;22.37;20.03;;;11.00;99.90;;;;;;5015540;28;20233;-66
2021/10/26 00:02:41;;;;;;;23.27;20.77;;;11.00;99.90;;;;;;5023509;28;20244;-65
2021/10/26 00:05:09;;;;;;;24.93;22.03;;;11.00;99.90;;;;;;5021476;28;20596;-66
2021/10/26 00:07:37;;;;;;;25.67;22.87;;;11.00;99.90;;;;;;5030620;28;20269;-66
2021/10/26 00:10:07;;;;;;;26.83;23.57;;;11.00;99.90;;;;;;5037399;28;20228;-65
2021/10/26 00:12:37;;;;;;;29.17;24.13;;;11.00;99.90;;;;;;5031260;28;20787;-66
2021/10/26 00:15:06;;;;;;;25.33;22.63;;;11.10;99.90;;;;;;5036322;28;20255;-66
2021/10/26 00:17:34;;;;;;;25.50;22.73;;;11.00;99.90;;;;;;5034484;28;20268;-66
2021/10/26 00:20:02;;;;;;;26.87;23.23;;;11.00;99.90;;;;;;5036737;28;20286;-66
2021/10/26 00:22:30;;;;;;;28.67;23.87;;;11.00;99.90;;;;;;5034029;28;20604;-66
2021/10/26 00:24:58;;;;;;;25.60;22.83;;;11.00;99.90;;;;;;5036701;28;20273;-66
2021/10/26 00:27:26;;;;;;;29.83;26.03;;;11.00;99.90;;;;;;5034248;28;20231;-66
2021/10/26 00:29:56;;;;;;;29.47;26.40;;;11.00;99.90;;;;;;5035756;28;20649;-66
2021/10/26 00:32:24;;;;;;;31.53;26.83;;;10.90;99.90;;;;;;5032565;28;20245;-66
2021/10/26 00:34:52;;;;;;;29.33;25.93;;;10.90;99.90;;;;;;5033817;28;20291;-66
2021/10/26 00:37:20;;;;;;;28.90;25.87;;;10.90;99.90;;;;;;5035649;28;20317;-66
2021/10/26 00:39:49;;;;;;;30.63;25.37;;;10.90;99.90;;;;;;5032830;28;20237;-66
2021/10/26 00:42:17;;;;;;;29.47;26.33;;;10.90;99.90;;;;;;5046029;28;20243;-66
2021/10/26 00:44:48;;;;;;;32.23;27.10;;;10.90;99.90;;;;;;5050828;28;20720;-65
2021/10/26 00:47:18;;;;;;;31.40;27.43;;;11.00;99.90;;;;;;5035795;28;20230;-66
2021/10/26 00:49:46;;;;;;;30.83;27.53;;;10.90;99.90;;;;;;5034943;28;20241;-65
2021/10/26 00:52:17;;;;;;;32.00;26.87;;;10.90;99.90;;;;;;5036395;28;20609;-64
2021/10/26 00:54:47;;;;;;;32.07;27.83;;;10.90;99.90;;;;;;5050894;28;20229;-66
2021/10/26 00:57:25;;;;;;;32.67;26.50;;;10.90;99.90;;;;;;5031986;28;20684;-66
2021/10/26 00:59:55;;;;;;;30.83;26.87;;;10.90;99.90;;;;;;5030953;28;20611;-66
2021/10/26 01:02:25;;;;;;;30.27;27.03;;;10.90;99.90;;;;;;5036484;28;20241;-65
2021/10/26 01:04:53;;;;;;;32.73;27.90;;;10.80;99.90;;;;;;5038980;28;20772;-66
2021/10/26 01:07:22;;;;;;;30.57;27.27;;;10.90;99.90;;;;;;5053270;28;20760;-66
2021/10/26 01:09:50;;;;;;;30.10;26.87;;;10.90;99.90;;;;;;5037318;28;20245;-66
2021/10/26 01:12:18;;;;;;;36.00;29.60;;;10.90;99.90;;;;;;5038187;28;20229;-66
2021/10/26 01:14:47;;;;;;;33.60;27.77;;;10.90;99.90;;;;;;5035337;28;20258;-65
2021/10/26 01:17:15;;;;;;;31.40;28.00;;;10.90;99.90;;;;;;5049720;28;20697;-65
2021/10/26 01:19:46;;;;;;;32.73;28.83;;;10.90;99.90;;;;;;5033073;28;20265;-66
2021/10/26 01:22:15;;;;;;;29.87;26.53;;;10.90;99.90;;;;;;5047712;28;20247;-66
2021/10/26 01:24:45;;;;;;;31.57;27.60;;;10.80;99.90;;;;;;5035940;28;20244;-66
2021/10/26 01:27:13;;;;;;;30.70;26.17;;;10.80;99.90;;;;;;5032277;28;20231;-66
2021/10/26 01:29:42;;;;;;;31.17;26.50;;;10.80;99.90;;;;;;5044315;28;20241;-66
2021/10/26 01:32:14;;;;;;;33.50;28.60;;;10.90;99.90;;;;;;5038252;28;20316;-67
2021/10/26 01:34:46;;;;;;;30.60;27.03;;;10.80;99.90;;;;;;5039850;28;20720;-66
2021/10/26 01:37:15;;;;;;;30.10;26.67;;;10.80;99.90;;;;;;5032798;28;20309;-66
2021/10/26 01:39:44;;;;;;;31.63;28.27;;;10.80;99.90;;;;;;5009697;28;20654;-66
2021/10/26 01:42:13;;;;;;;31.07;26.77;;;10.80;99.90;;;;;;5027731;28;20448;-66
2021/10/26 01:44:42;;;;;;;30.53;25.90;;;10.70;99.90;;;;;;5021579;28;20737;-66
2021/10/26 01:47:21;;;;;;;28.50;25.50;;;10.70;99.90;;;;;;5032436;28;20230;-66
2021/10/26 01:49:52;;;;;;;29.33;23.93;;;10.70;99.90;;;;;;5036824;28;20232;-66
2021/10/26 01:52:25;;;;;;;29.80;26.57;;;10.80;99.90;;;;;;5051743;28;20239;-64
2021/10/26 01:54:53;;;;;;;33.40;26.53;;;10.60;99.90;;;;;;5035730;28;20320;-64
2021/10/26 01:57:22;;;;;;;28.60;25.50;;;10.60;99.90;;;;;;5053491;28;20595;-67
2021/10/26 02:02:43;;;;;;;35.67;26.57;;;10.60;99.90;;;;;;5035578;28;20315;-66
2021/10/26 02:05:13;;;;;;;30.83;26.20;;;10.60;99.90;;;;;;5029370;28;20241;-66
2021/10/26 02:07:41;;;;;;;30.10;26.67;;;10.60;99.90;;;;;;5034142;28;20328;-66
2021/10/26 02:10:10;;;;;;;30.47;26.07;;;10.60;99.90;;;;;;5036946;28;20267;-67
2021/10/26 02:12:41;;;;;;;28.90;25.23;;;10.50;99.90;;;;;;5027434;28;20237;-65
2021/10/26 02:15:10;;;;;;;31.30;27.87;;;10.50;99.90;;;;;;5048995;28;20244;-66
2021/10/26 02:17:39;;;;;;;33.60;28.03;;;10.50;99.90;;;;;;5035221;28;20249;-66
2021/10/26 02:20:11;;;;;;;32.83;28.03;;;10.50;99.90;;;;;;5034034;28;20244;-66
2021/10/26 02:22:40;;;;;;;32.93;26.10;;;10.50;99.90;;;;;;5032217;28;20237;-66
2021/10/26 02:25:09;;;;;;;29.13;26.00;;;10.40;99.90;;;;;;5056268;28;20240;-65
2021/10/26 02:27:38;;;;;;;31.30;26.53;;;10.40;99.90;;;;;;5030273;28;20270;-66
2021/10/26 02:30:07;;;;;;;32.03;27.07;;;10.40;99.90;;;;;;5034999;28;20244;-67
2021/10/26 02:32:35;;;;;;;32.30;25.77;;;10.40;99.90;;;;;;5035134;28;20226;-66
2021/10/26 02:35:04;;;;;;;30.87;26.57;;;10.40;99.90;;;;;;5030577;28;20272;-66
2021/10/26 02:37:32;;;;;;;31.63;26.80;;;10.40;99.90;;;;;;5033625;28;20231;-65
2021/10/26 02:40:02;;;;;;;32.13;26.33;;;10.40;99.90;;;;;;5029254;28;20260;-66
2021/10/26 02:42:30;;;;;;;33.20;26.93;;;10.40;99.90;;;;;;5030231;28;20236;-66
2021/10/26 02:44:59;;;;;;;32.53;28.00;;;10.50;99.90;;;;;;5031442;28;20243;-67
2021/10/26 02:47:27;;;;;;;32.73;27.37;;;10.50;99.90;;;;;;5039904;28;20233;-66
2021/10/26 02:49:55;;;;;;;31.27;26.67;;;10.50;99.90;;;;;;5041814;28;20739;-65
2021/10/26 02:52:23;;;;;;;33.70;28.17;;;10.50;99.90;;;;;;5029657;28;20721;-66
2021/10/26 02:54:51;;;;;;;31.60;26.43;;;10.50;99.90;;;;;;5029443;28;20235;-65
2021/10/26 02:57:21;;;;;;;31.47;26.40;;;10.50;99.90;;;;;;5041546;28;20318;-66
2021/10/26 02:59:49;;;;;;;32.43;28.23;;;10.50;99.90;;;;;;5055934;28;20447;-66
2021/10/26 03:02:17;;;;;;;31.17;27.07;;;10.50;99.90;;;;;;5053786;28;20570;-66
2021/10/26 03:04:45;;;;;;;32.90;26.63;;;10.40;99.90;;;;;;5053643;28;20238;-66
2021/10/26 03:07:13;;;;;;;30.60;26.40;;;10.40;99.90;;;;;;5025076;28;20324;-66
2021/10/26 03:09:42;;;;;;;35.10;28.33;;;10.40;99.90;;;;;;5016755;28;20541;-67
2021/10/26 03:12:10;;;;;;;33.30;26.97;;;10.30;99.90;;;;;;5014295;28;20721;-67
2021/10/26 03:14:40;;;;;;;35.33;27.03;;;10.30;99.90;;;;;;5025406;28;20247;-66
2021/10/26 03:17:08;;;;;;;36.67;28.50;;;10.30;99.90;;;;;;5029534;28;20749;-66
2021/10/26 03:19:44;;;;;;;35.57;27.87;;;10.30;99.90;;;;;;5014131;28;20242;-66
2021/10/26 03:22:13;;;;;;;33.90;27.50;;;10.30;99.90;;;;;;5030296;28;20305;-66
2021/10/26 03:24:41;;;;;;;33.90;27.97;;;10.20;99.90;;;;;;5049668;28;20316;-66
2021/10/26 03:27:09;;;;;;;32.07;27.70;;;10.20;99.90;;;;;;5031217;28;20232;-66
2021/10/26 03:29:38;;;;;;;32.50;27.90;;;10.20;99.90;;;;;;5037381;28;20590;-67
2021/10/26 03:32:08;;;;;;;32.27;26.93;;;10.10;99.90;;;;;;5036812;28;20227;-65
2021/10/26 03:34:56;;;;;;;30.27;26.60;;;10.10;99.90;;;;;;5033136;28;20298;-66
2021/10/26 03:37:25;;;;;;;35.23;27.60;;;10.10;99.90;;;;;;5050473;28;20319;-65
2021/10/26 03:39:55;;;;;;;34.90;27.43;;;10.10;99.90;;;;;;5035344;28;20259;-66
2021/10/26 03:42:25;;;;;;;37.83;28.50;;;10.10;99.90;;;;;;5045129;28;20233;-66
2021/10/26 03:44:53;;;;;;;31.93;25.90;;;10.10;99.90;;;;;;5030260;28;20325;-66
2021/10/26 03:47:23;;;;;;;33.07;27.80;;;10.10;99.90;;;;;;5043155;28;20303;-66
2021/10/26 03:49:53;;;;;;;34.53;28.33;;;10.20;99.90;;;;;;5051104;28;20503;-65
2021/10/26 03:52:21;;;;;;;36.27;28.80;;;10.20;99.90;;;;;;5047521;28;20282;-65
2021/10/26 03:54:50;;;;;;;37.57;27.47;;;10.20;99.90;;;;;;5034797;28;20252;-66
2021/10/26 03:57:20;;;;;;;39.07;29.93;;;10.20;99.90;;;;;;5032072;28;20268;-66
2021/10/26 03:59:48;;;;;;;36.73;27.27;;;10.20;99.90;;;;;;5053092;28;20237;-66
2021/10/26 04:02:23;;;;;;;36.93;28.10;;;10.20;99.90;;;;;;5044266;28;20259;-66
2021/10/26 04:04:57;;;;;;;34.70;26.93;;;10.20;99.90;;;;;;5044883;28;20244;-64
2021/10/26 04:07:26;;;;;;;34.63;28.40;;;10.20;99.90;;;;;;5047221;28;20647;-65
2021/10/26 04:09:58;;;;;;;36.10;29.70;;;10.20;99.90;;;;;;5043704;28;20727;-66
2021/10/26 04:12:31;;;;;;;36.20;28.57;;;10.30;99.90;;;;;;5057711;28;20235;-67
2021/10/26 04:15:01;;;;;;;38.23;29.43;;;10.20;99.90;;;;;;5032494;28;20254;-66
2021/10/26 04:17:32;;;;;;;33.37;27.17;;;10.20;99.90;;;;;;5027219;28;20232;-66
2021/10/26 04:20:02;;;;;;;42.13;31.57;;;10.20;99.90;;;;;;5046347;28;20297;-66
2021/10/26 04:22:31;;;;;;;43.07;29.37;;;10.20;99.90;;;;;;5029386;28;20263;-65
2021/10/26 04:24:59;;;;;;;42.20;29.83;;;10.20;99.90;;;;;;5031339;28;20243;-66
2021/10/26 04:27:28;;;;;;;41.93;31.47;;;10.20;99.90;;;;;;5051730;28;20239;-65
2021/10/26 04:29:56;;;;;;;39.83;29.57;;;10.20;99.90;;;;;;5054706;28;20243;-65
2021/10/26 04:32:24;;;;;;;42.17;31.27;;;10.30;99.90;;;;;;5029182;28;20233;-66
2021/10/26 04:35:05;;;;;;;37.77;29.93;;;10.30;99.90;;;;;;5050274;28;20263;-65
2021/10/26 04:37:35;;;;;;;39.13;30.30;;;10.30;99.90;;;;;;5033785;28;20243;-65
2021/10/26 04:40:04;;;;;;;39.63;30.43;;;10.40;99.90;;;;;;5032204;28;20639;-66
2021/10/26 04:42:34;;;;;;;39.17;29.60;;;10.40;99.90;;;;;;5026249;28;20702;-65
2021/10/26 04:45:05;;;;;;;46.40;31.57;;;10.40;99.90;;;;;;5026335;28;20251;-66
2021/10/26 04:47:33;;;;;;;38.87;30.97;;;10.40;99.90;;;;;;5030753;28;20644;-66
2021/10/26 04:50:02;;;;;;;44.00;32.10;;;10.30;99.90;;;;;;5047738;28;20431;-67
2021/10/26 04:52:36;;;;;;;39.90;32.50;;;10.40;99.90;;;;;;5030100;28;20280;-66
2021/10/26 04:55:06;;;;;;;42.00;32.30;;;10.30;99.90;;;;;;5037396;28;20747;-65
2021/10/26 04:57:35;;;;;;;42.50;32.47;;;10.20;99.90;;;;;;5033566;28;20295;-66
2021/10/26 05:00:18;;;;;;;42.43;30.63;;;10.30;99.90;;;;;;5048798;28;20999;-66
2021/10/26 05:02:46;;;;;;;43.20;32.20;;;10.30;99.90;;;;;;5033537;28;20264;-66
2021/10/26 05:05:15;;;;;;;42.37;32.20;;;10.20;99.90;;;;;;5037656;28;20307;-66
2021/10/26 05:07:44;;;;;;;43.60;30.77;;;10.20;99.90;;;;;;5029160;28;20294;-66
2021/10/26 05:10:14;;;;;;;43.50;32.40;;;10.20;99.90;;;;;;5029930;28;20286;-65
2021/10/26 05:12:44;;;;;;;45.57;33.50;;;10.20;99.90;;;;;;5046889;28;20255;-66
2021/10/26 05:15:21;;;;;;;45.03;32.63;;;10.30;99.90;;;;;;5031906;28;20231;-66
2021/10/26 05:18:04;;;;;;;39.00;31.13;;;10.30;99.90;;;;;;5027996;28;20319;-66
2021/10/26 05:20:53;;;;;;;42.40;31.50;;;10.30;99.90;;;;;;5035002;28;20732;-65
2021/10/26 05:23:49;;;;;;;46.47;32.63;;;10.30;99.90;;;;;;5035339;28;20251;-65
2021/10/26 05:26:34;;;;;;;39.87;31.87;;;10.30;99.90;;;;;;5048995;28;20239;-66
2021/10/26 05:29:03;;;;;;;45.17;33.60;;;10.30;99.90;;;;;;5047688;28;20249;-65
2021/10/26 05:31:32;;;;;;;43.30;33.60;;;10.30;99.90;;;;;;5028368;28;20233;-66
2021/10/26 05:34:00;;;;;;;44.67;33.57;;;10.30;99.90;;;;;;5033414;28;20331;-65
2021/10/26 05:36:29;;;;;;;45.87;32.50;;;10.30;99.90;;;;;;5030390;28;20287;-66
2021/10/26 05:38:58;;;;;;;49.30;35.77;;;10.40;99.90;;;;;;5042033;28;20237;-66
2021/10/26 05:41:29;;;;;;;48.53;35.20;;;10.40;99.90;;;;;;5031077;28;20319;-65
2021/10/26 05:43:57;;;;;;;48.27;34.37;;;10.40;99.90;;;;;;5036045;28;20254;-66
2021/10/26 05:46:25;;;;;;;44.93;33.23;;;10.40;99.90;;;;;;5048618;28;20604;-66
2021/10/26 05:48:53;;;;;;;50.70;33.90;;;10.40;99.90;;;;;;5030826;28;20237;-66
2021/10/26 05:51:21;;;;;;;51.80;36.57;;;10.30;99.90;;;;;;5031092;28;20769;-66
2021/10/26 05:53:49;;;;;;;49.27;34.43;;;10.40;99.90;;;;;;5035417;28;20240;-66
2021/10/26 05:56:19;;;;;;;47.77;33.00;;;10.50;99.90;;;;;;5039259;28;20846;-66
2021/10/26 05:58:47;;;;;;;52.27;36.07;;;10.50;99.90;;;;;;5030515;28;20280;-66
2021/10/26 06:01:16;;;;;;;48.20;34.47;;;10.50;99.90;;;;;;5020403;28;20235;-65
2021/10/26 06:03:44;;;;;;;48.63;34.80;;;10.50;99.90;;;;;;5013277;28;20243;-66
2021/10/26 06:06:14;;;;;;;45.73;34.67;;;10.50;99.90;;;;;;5016421;28;20260;-66
2021/10/26 06:08:42;;;;;;;49.73;35.93;;;10.50;99.90;;;;;;5010006;28;20877;-65
2021/10/26 06:11:11;;;;;;;44.90;33.27;;;10.50;99.90;;;;;;5018315;28;20228;-66
2021/10/26 06:13:45;;;;;;;49.10;33.33;;;10.50;99.90;;;;;;5052996;28;20243;-66
2021/10/26 06:16:14;;;;;;;46.67;34.90;;;10.50;99.90;;;;;;5049937;28;20321;-66
2021/10/26 06:18:45;;;;;;;49.33;35.40;;;10.60;99.90;;;;;;5042365;28;20831;-66
2021/10/26 06:21:13;;;;;;;50.47;35.93;;;10.60;99.90;;;;;;5028912;28;21008;-65
2021/10/26 06:23:42;;;;;;;49.63;34.63;;;10.60;99.90;;;;;;5036230;28;20232;-65
2021/10/26 06:26:10;;;;;;;50.03;33.90;;;10.60;99.90;;;;;;5042581;28;20556;-65
2021/10/26 06:28:48;;;;;;;48.67;35.63;;;10.70;99.90;;;;;;5028466;28;20355;-65
2021/10/26 06:31:17;;;;;;;46.87;33.10;;;10.70;99.90;;;;;;5015121;28;20359;-65
2021/10/26 06:33:48;;;;;;;48.93;34.03;;;10.70;99.90;;;;;;5010248;28;20268;-63
2021/10/26 06:36:21;;;;;;;49.47;36.20;;;10.70;99.90;;;;;;5023302;28;20605;-64
2021/10/26 06:38:52;;;;;;;44.53;33.03;;;10.70;99.90;;;;;;5040748;28;20233;-64
2021/10/26 06:41:21;;;;;;;48.33;34.00;;;10.80;99.90;;;;;;5026820;28;20237;-65
2021/10/26 06:44:04;;;;;;;50.80;35.90;;;10.70;99.90;;;;;;5027532;28;20261;-64
2021/10/26 06:46:41;;;;;;;46.00;34.57;;;10.70;99.90;;;;;;5033300;28;20319;-65
2021/10/26 06:49:29;;;;;;;46.07;34.33;;;10.60;99.90;;;;;;5038190;28;20310;-65
2021/10/26 06:52:16;;;;;;;45.27;34.33;;;10.60;99.90;;;;;;5034094;28;20291;-64
2021/10/26 06:55:03;;;;;;;46.17;34.60;;;10.60;99.90;;;;;;5033024;28;20248;-65
2021/10/26 06:57:51;;;;;;;48.97;34.33;;;10.70;99.90;;;;;;5039463;28;20244;-65
2021/10/26 07:00:46;;;;;;;43.43;32.60;;;10.60;99.90;;;;;;5029621;28;20296;-66
2021/10/26 07:03:34;;;;;;;47.30;33.93;;;10.60;99.90;;;;;;5034450;28;20241;-65
2021/10/26 07:06:28;;;;;;;46.23;33.47;;;10.60;99.90;;;;;;5037296;28;20255;-65
2021/10/26 07:08:59;;;;;;;40.37;31.90;;;10.70;99.90;;;;;;5032996;28;20247;-66
2021/10/26 07:11:45;;;;;;;44.03;32.83;;;10.70;99.90;;;;;;5039269;28;20251;-66
2021/10/26 07:14:13;;;;;;;45.57;32.17;;;10.70;99.90;;;;;;5048229;28;20237;-65
2021/10/26 07:16:47;;;;;;;48.60;34.43;;;10.70;99.90;;;;;;5047011;28;20276;-65
2021/10/26 07:19:17;;;;;;;43.97;32.53;;;10.80;99.90;;;;;;5056491;28;20238;-66
2021/10/26 07:22:27;;;;;;;44.80;32.40;;;10.80;99.90;;;;;;5050169;28;20592;-67
2021/10/26 07:25:25;;;;;;;44.90;32.77;;;10.80;99.90;;;;;;5046670;28;20236;-66
2021/10/26 07:27:58;;;;;;;45.13;32.07;;;10.80;99.90;;;;;;5046918;28;20245;-66
2021/10/26 07:30:32;;;;;;;41.77;31.90;;;10.90;99.90;;;;;;5052112;28;20242;-66
2021/10/26 07:33:03;;;;;;;45.33;32.57;;;10.90;99.90;;;;;;5030372;28;20578;-66
2021/10/26 07:35:37;;;;;;;48.87;32.60;;;10.90;99.90;;;;;;5054073;28;20242;-66
2021/10/26 07:38:06;;;;;;;43.27;30.87;;;11.00;99.90;;;;;;5025656;28;20238;-66
2021/10/26 07:40:34;;;;;;;43.63;32.27;;;11.00;99.90;;;;;;5043651;28;20225;-66
2021/10/26 07:43:22;;;;;;;44.60;30.83;;;11.00;99.90;;;;;;5037123;28;20240;-65
2021/10/26 07:46:27;;;;;;;41.50;30.83;;;11.00;99.90;;;;;;5031286;28;20238;-66
2021/10/26 07:48:57;;;;;;;41.53;31.30;;;11.10;99.90;;;;;;5053978;28;20243;-65
2021/10/26 07:51:25;;;;;;;39.93;30.23;;;11.10;99.90;;;;;;5048163;28;20588;-66
2021/10/26 07:53:53;;;;;;;40.90;31.93;;;11.20;99.90;;;;;;5057328;28;20272;-66
2021/10/26 07:56:23;;;;;;;39.00;30.37;;;11.20;99.90;;;;;;5041811;28;20229;-65
2021/10/26 07:58:51;;;;;;;41.97;32.57;;;11.30;99.90;;;;;;5049325;28;20807;-65
2021/10/26 08:01:19;;;;;;;42.60;31.57;;;11.30;99.90;;;;;;5051007;28;20282;-65
2021/10/26 08:03:48;;;;;;;38.30;30.80;;;11.40;99.90;;;;;;5038287;28;20713;-65
2021/10/26 08:06:18;;;;;;;40.57;30.13;;;11.40;99.90;;;;;;5033463;28;20721;-67
2021/10/26 08:08:46;;;;;;;39.40;29.83;;;11.50;99.90;;;;;;5053204;28;20321;-66
2021/10/26 08:11:15;;;;;;;39.70;29.53;;;11.60;99.90;;;;;;5055786;28;20239;-67
2021/10/26 08:13:45;;;;;;;38.83;28.80;;;11.60;99.90;;;;;;5028373;28;20245;-66
2021/10/26 08:16:15;;;;;;;40.80;30.87;;;11.60;99.90;;;;;;5033214;28;20311;-67
2021/10/26 08:18:45;;;;;;;34.30;28.83;;;11.70;99.90;;;;;;5025605;28;20250;-66
2021/10/26 08:21:15;;;;;;;35.97;28.07;;;11.70;99.90;;;;;;5044516;28;20254;-67
2021/10/26 08:23:50;;;;;;;37.57;30.20;;;11.80;99.90;;;;;;5033068;28;20245;-66
2021/10/26 08:26:23;;;;;;;38.83;29.27;;;11.80;99.90;;;;;;5033829;28;20753;-65
2021/10/26 08:28:55;;;;;;;34.27;27.40;;;11.90;99.90;;;;;;5057059;28;20238;-66
2021/10/26 08:31:27;;;;;;;32.43;27.00;;;11.90;99.90;;;;;;5035768;28;20271;-66
2021/10/26 08:34:14;;;;;;;34.87;27.13;;;11.90;99.90;;;;;;5052398;28;20325;-66
2021/10/26 08:36:42;;;;;;;32.27;27.10;;;12.00;99.90;;;;;;5040292;28;20260;-66
2021/10/26 08:39:13;;;;;;;34.70;28.27;;;12.00;99.90;;;;;;5052949;28;20316;-66
2021/10/26 08:41:46;;;;;;;34.63;27.97;;;12.00;99.90;;;;;;5051286;28;20335;-66
2021/10/26 08:44:17;;;;;;;30.87;25.50;;;12.10;99.90;;;;;;5041928;28;20251;-66
2021/10/26 08:46:46;;;;;;;30.33;25.80;;;12.10;99.90;;;;;;5036902;28;20248;-66
2021/10/26 08:49:16;;;;;;;31.40;25.40;;;12.10;99.90;;;;;;5029734;28;20243;-66
2021/10/26 08:52:05;;;;;;;31.63;25.63;;;12.10;99.90;;;;;;5032412;28;20234;-66
2021/10/26 08:54:36;;;;;;;29.67;23.63;;;12.10;99.90;;;;;;5054462;28;20238;-65
2021/10/26 08:57:28;;;;;;;27.97;21.10;;;12.10;99.90;;;;;;5041795;28;20238;-67
2021/10/26 09:00:18;;;;;;;25.97;20.67;;;12.20;99.90;;;;;;5038276;28;20245;-66
2021/10/26 09:02:49;;;;;;;27.60;20.27;;;12.20;99.90;;;;;;5048117;28;20575;-65
2021/10/26 09:05:21;;;;;;;24.00;20.03;;;12.20;99.90;;;;;;5052531;28;20240;-66
2021/10/26 09:08:08;;;;;;;25.23;19.37;;;12.30;99.90;;;;;;5050884;28;20242;-66
2021/10/26 09:10:40;;;;;;;27.40;20.20;;;12.30;99.90;;;;;;5042911;28;20641;-66
2021/10/26 09:17:04;;;;;;;20.87;17.97;;;12.30;99.90;;;;;;4955913;28;20321;-66
2021/10/26 09:20:03;;;;;;;29.37;21.40;;;12.40;99.90;;;;;;5024969;28;20251;-65
2021/10/26 09:22:49;;;;;;;23.00;18.83;;;12.40;99.90;;;;;;5035097;28;20229;-66
2021/10/26 09:25:20;;;;;;;28.97;20.07;;;12.30;99.90;;;;;;5041743;28;20235;-66
2021/10/26 09:27:49;;;;;;;25.53;20.27;;;12.40;99.90;;;;;;5038407;28;20309;-65
2021/10/26 09:30:21;;;;;;;30.57;21.97;;;12.40;99.90;;;;;;5032231;28;20690;-66
2021/10/26 09:32:50;;;;;;;29.60;21.50;;;12.50;99.90;;;;;;5056586;28;20768;-65
2021/10/26 09:35:20;;;;;;;25.60;21.20;;;12.60;99.90;;;;;;5037500;28;20251;-66
2021/10/26 09:37:52;;;;;;;27.27;22.50;;;12.70;99.90;;;;;;5041707;28;20313;-65
2021/10/26 09:40:20;;;;;;;27.97;23.20;;;12.80;99.90;;;;;;5046334;28;20241;-66
2021/10/26 09:42:52;;;;;;;27.27;23.17;;;12.80;99.90;;;;;;5044826;28;20243;-65
2021/10/26 09:45:29;;;;;;;25.37;21.93;;;12.90;99.90;;;;;;5030038;28;20332;-65
2021/10/26 09:48:13;;;;;;;26.60;22.23;;;13.00;99.90;;;;;;5033316;28;20243;-64
2021/10/26 09:50:42;;;;;;;28.27;22.80;;;13.10;99.90;;;;;;5033738;28;20233;-66
2021/10/26 09:53:12;;;;;;;24.97;21.10;;;13.20;99.90;;;;;;5038368;28;20238;-65
2021/10/26 09:55:41;;;;;;;27.27;21.57;;;13.20;99.90;;;;;;5034686;28;20235;-65
2021/10/26 09:58:15;;;;;;;24.40;20.50;;;13.10;99.90;;;;;;5030462;28;20330;-66
2021/10/26 10:00:45;;;;;;;24.50;19.87;;;13.10;99.90;;;;;;5035994;28;20239;-65
2021/10/26 10:03:22;;;;;;;24.43;18.97;;;13.20;99.90;;;;;;5042145;28;20512;-66
2021/10/26 10:05:53;;;;;;;24.30;19.03;;;13.10;99.90;;;;;;5036824;28;20246;-66
2021/10/26 10:08:23;;;;;;;22.57;19.40;;;13.20;99.90;;;;;;5040134;28;20299;-65
2021/10/26 10:10:53;;;;;;;25.47;19.67;;;13.20;99.90;;;;;;5032334;28;20699;-66
2021/10/26 10:13:23;;;;;;;24.17;19.23;;;13.30;99.90;;;;;;5034502;28;20341;-64
2021/10/26 10:15:51;;;;;;;23.43;18.87;;;13.40;99.90;;;;;;5016770;28;20250;-65
2021/10/26 10:18:23;;;;;;;23.57;17.80;;;13.60;99.90;;;;;;5015273;28;20670;-65
2021/10/26 10:20:55;;;;;;;21.93;17.70;;;13.80;99.90;;;;;;4999264;28;20920;-66
2021/10/26 10:23:26;;;;;;;21.10;18.47;;;13.80;99.90;;;;;;5034180;28;20238;-64
2021/10/26 10:25:59;;;;;;;22.23;17.50;;;13.80;99.90;;;;;;5015877;28;20240;-67
2021/10/26 10:28:34;;;;;;;19.17;16.20;;;13.80;99.90;;;;;;5015258;28;20718;-66
2021/10/26 10:31:04;;;;;;;20.23;17.00;;;13.90;99.90;;;;;;5015652;28;20796;-65
2021/10/26 10:33:32;;;;;;;19.70;16.27;;;13.90;99.90;;;;;;5013947;28;20692;-66
2021/10/26 10:36:04;;;;;;;21.77;17.00;;;13.80;99.90;;;;;;5015810;28;20242;-65
2021/10/26 10:38:33;;;;;;;22.03;16.80;;;13.90;99.90;;;;;;5016094;28;20707;-65
2021/10/26 10:41:20;;;;;;;21.07;16.90;;;14.00;99.90;;;;;;5017024;28;20250;-65
2021/10/26 10:43:50;;;;;;;17.70;15.47;;;14.30;99.90;;;;;;5013798;28;20242;-65
2021/10/26 10:46:37;;;;;;;17.67;15.10;;;14.50;99.90;;;;;;5016528;28;20899;-64
2021/10/26 10:49:42;;;;;;;17.00;15.20;;;14.80;99.90;;;;;;5014909;28;20654;-65
2021/10/26 10:52:13;;;;;;;18.70;15.10;;;15.10;99.90;;;;;;5025498;28;20274;-65
2021/10/26 10:54:48;;;;;;;17.03;14.73;;;14.90;99.90;;;;;;5036005;28;20599;-66
2021/10/26 10:57:21;;;;;;;18.30;15.37;;;14.80;99.90;;;;;;5037100;28;20361;-65
2021/10/26 10:59:52;;;;;;;18.07;15.00;;;14.70;99.90;;;;;;5036849;28;20365;-64
2021/10/26 11:02:26;;;;;;;19.27;13.80;;;14.70;99.90;;;;;;5042470;28;20330;-65
2021/10/26 11:04:55;;;;;;;17.43;14.43;;;15.00;99.90;;;;;;5035883;28;20599;-65
2021/10/26 11:07:49;;;;;;;16.80;13.30;;;15.10;99.90;;;;;;5028421;28;20244;-66
2021/10/26 11:10:19;;;;;;;18.07;14.03;;;15.00;99.90;;;;;;5032477;28;20260;-64
2021/10/26 11:12:48;;;;;;;15.13;13.47;;;14.90;99.90;;;;;;5031695;28;20232;-65
2021/10/26 11:15:24;;;;;;;14.20;12.57;;;14.90;99.90;;;;;;5035484;28;20278;-66
2021/10/26 11:17:53;;;;;;;16.57;13.10;;;15.00;99.90;;;;;;5034803;28;20281;-66
2021/10/26 11:20:55;;;;;;;16.07;13.37;;;14.90;99.90;;;;;;5028023;28;20232;-66
2021/10/26 11:23:44;;;;;;;15.77;13.30;;;14.60;99.90;;;;;;5033069;28;21075;-65
2021/10/26 11:26:15;;;;;;;19.23;13.17;;;14.50;99.90;;;;;;5034724;28;20241;-66
2021/10/26 11:29:06;;;;;;;16.63;13.20;;;14.40;99.90;;;;;;5031068;28;20248;-65
2021/10/26 11:31:46;;;;;;;17.93;13.03;;;14.50;99.90;;;;;;5024798;28;20255;-66
2021/10/26 11:34:20;;;;;;;14.27;12.37;;;14.50;99.90;;;;;;5053644;28;20259;-66
2021/10/26 11:37:02;;;;;;;15.50;12.30;;;14.50;99.90;;;;;;5031466;28;20724;-65
2021/10/26 11:39:31;;;;;;;15.47;12.33;;;14.50;99.90;;;;;;5037773;28;20225;-66
2021/10/26 11:41:59;;;;;;;13.63;11.73;;;14.50;99.90;;;;;;5039524;28;20239;-66
2021/10/26 11:44:30;;;;;;;15.47;12.63;;;14.50;99.90;;;;;;5028821;28;20771;-65
2021/10/26 11:47:02;;;;;;;17.63;13.40;;;14.50;99.90;;;;;;5031434;28;20711;-65
2021/10/26 11:49:32;;;;;;;16.13;12.60;;;14.50;99.90;;;;;;5025928;28;20251;-65
2021/10/26 11:52:04;;;;;;;16.73;12.83;;;14.60;99.90;;;;;;5027109;28;20335;-65
2021/10/26 11:54:36;;;;;;;13.57;12.07;;;14.60;99.90;;;;;;5028176;28;20318;-65
2021/10/26 11:57:05;;;;;;;15.50;11.67;;;14.60;99.90;;;;;;5032312;28;20267;-65
2021/10/26 11:59:38;;;;;;;16.47;11.63;;;14.60;99.90;;;;;;5033892;28;20277;-65
2021/10/26 12:02:15;;;;;;;16.13;11.13;;;14.60;99.90;;;;;;5030678;28;20318;-66
2021/10/26 12:04:49;;;;;;;16.23;11.50;;;14.70;99.90;;;;;;5050079;28;20639;-66
2021/10/26 12:07:20;;;;;;;14.83;11.90;;;14.60;99.90;;;;;;5030293;28;20310;-64
2021/10/26 12:09:51;;;;;;;15.30;11.17;;;14.50;99.90;;;;;;5035768;28;20238;-66
2021/10/26 12:12:21;;;;;;;15.90;11.80;;;14.50;99.90;;;;;;5030947;28;20244;-65
2021/10/26 12:14:50;;;;;;;18.70;11.30;;;14.30;99.90;;;;;;5026264;28;20256;-67
2021/10/26 12:17:30;;;;;;;14.70;11.43;;;14.30;99.90;;;;;;5029292;28;20683;-65
2021/10/26 12:20:05;;;;;;;15.43;11.40;;;14.30;99.90;;;;;;5031140;28;20265;-65
2021/10/26 12:22:42;;;;;;;17.50;11.93;;;14.40;99.90;;;;;;5034265;28;20246;-66
2021/10/26 12:25:17;;;;;;;17.33;12.33;;;14.40;99.90;;;;;;5057917;28;20690;-66
2021/10/26 12:27:49;;;;;;;18.27;12.03;;;14.40;99.90;;;;;;5028752;28;20227;-66
2021/10/26 12:30:22;;;;;;;15.23;11.63;;;14.40;99.90;;;;;;5034179;28;20248;-66
2021/10/26 12:32:54;;;;;;;17.07;12.13;;;14.40;99.90;;;;;;5036183;28;20314;-64
2021/10/26 12:35:25;;;;;;;16.77;11.93;;;14.40;99.90;;;;;;5030860;28;20255;-66
2021/10/26 12:38:06;;;;;;;17.53;12.53;;;14.50;99.90;;;;;;5034591;28;20232;-66
2021/10/26 12:40:41;;;;;;;17.23;12.50;;;14.50;99.90;;;;;;5036066;28;20296;-66
2021/10/26 12:43:10;;;;;;;18.27;12.40;;;14.40;99.90;;;;;;5031463;28;20250;-66
2021/10/26 12:45:41;;;;;;;18.33;12.10;;;14.40;99.90;;;;;;5034593;28;20257;-66
2021/10/26 12:48:12;;;;;;;14.47;12.10;;;14.40;99.90;;;;;;5037195;28;20928;-66
2021/10/26 12:50:48;;;;;;;18.37;13.80;;;14.50;99.90;;;;;;5020516;28;20236;-65
2021/10/26 12:53:35;;;;;;;16.13;12.67;;;14.40;99.90;;;;;;4993895;28;20310;-64
2021/10/26 12:56:16;;;;;;;16.47;13.13;;;14.40;99.90;;;;;;5010376;28;21674;-64
2021/10/26 12:58:46;;;;;;;19.03;12.93;;;14.30;99.90;;;;;;5010523;28;20739;-64
2021/10/26 13:01:25;;;;;;;16.83;12.97;;;14.30;99.90;;;;;;5023502;28;20248;-64